Latest Weather Observations for Morawa Airport

IDW60801

Issued at 2:05 pm WST Thursday 21 August 2014 (issued every 30 minutes, with the page automatically refreshed every 10 minutes)

About weather observations | Map of weather stations | Latest weather observations for WA | Other Formats
Station Details ID: 008296 Name: MORAWA AIRPORT Lat: -29.20 Lon: 116.02 Height: 271.4 m
Data from the previous 72 hours. | See also: Recent months at Morawa Airport
Date/Time
WST
Temp
°C
App
Temp
°C
Dew
Point
Rel
Hum
%
Delta-T
°C
Wind Press
QNH
hPa
Press
MSL
hPa
Rain
since 9 am
mm
Dir
 
Spd
km/h
Gust
km/h
Spd
kts
Gust
kts
21/02:00pm 19.6 18.6 14.6 73 2.9 W 13 19 7 10 1014.2 1014.0 3.2
21/01:30pm 19.1 18.2 15.8 81 2.0 W 15 20 8 11 1014.4 1014.2 3.2
21/01:00pm 18.4 18.2 15.6 84 1.7 W 11 19 6 10 1014.7 1014.5 3.2
21/12:30pm 18.3 18.8 17.5 95 0.5 NW 11 17 6 9 1015.0 1014.8 3.2
21/12:00pm 18.3 16.8 15.2 82 1.8 W 17 22 9 12 1015.3 1015.2 3.0
21/11:30am 18.1 17.8 16.4 90 1.0 WNW 13 19 7 10 1015.3 1015.2 3.0
21/11:00am 16.6 15.6 16.6 100 0.0 WNW 17 24 9 13 1015.6 1015.5 3.0
21/10:30am 15.7 14.4 15.7 100 0.0 NW 17 22 9 12 1015.7 1015.6 3.0
21/10:00am 15.0 13.8 15.0 100 0.0 NW 15 20 8 11 1015.8 1015.7 3.0
21/09:30am 15.2 14.0 15.0 99 0.1 NW 15 20 8 11 1015.6 1015.5 0.4
21/09:00am 14.7 12.5 14.4 98 0.2 NNW 19 26 10 14 1015.2 1015.1 0.8
21/08:30am 15.3 12.5 12.6 84 1.5 NNW 19 28 10 15 1014.8 1014.6 0.4
21/08:00am 14.1 12.1 12.8 92 0.7 N 15 22 8 12 1014.5 1014.3 0.4
21/07:30am 14.2 12.0 12.1 87 1.2 N 15 22 8 12 1014.3 1014.1 0.4
21/07:00am 13.8 12.0 12.2 90 0.9 N 13 22 7 12 1014.1 1013.9 0.4
21/06:30am 13.7 11.6 12.3 91 0.8 N 15 20 8 11 1013.7 1013.5 0.4
21/06:00am 13.4 11.0 12.6 95 0.4 N 17 22 9 12 1013.6 1013.4 0.4
21/05:30am 13.3 11.8 13.1 99 0.1 N 13 19 7 10 1013.5 1013.3 0.4
21/05:00am 13.4 12.4 13.4 100 0.0 N 11 15 6 8 1013.6 1013.4 0.4
21/04:30am 13.3 12.6 13.3 100 0.0 N 9 13 5 7 1013.8 1013.6 0.4
21/04:00am 13.6 13.0 13.6 100 0.0 N 9 13 5 7 1013.9 1013.7 0.4
21/03:30am 13.7 13.2 13.7 100 0.0 N 9 13 5 7 1014.0 1013.8 0.4
21/03:00am 13.7 13.2 13.7 100 0.0 N 9 13 5 7 1014.2 1014.0 0.4
21/02:30am 13.6 13.4 13.6 100 0.0 NNW 7 11 4 6 1014.6 1014.4 0.4
21/02:00am 13.5 13.3 13.5 100 0.0 N 7 9 4 5 1014.7 1014.5 0.0
21/01:30am 13.6 12.8 13.0 96 0.3 N 9 13 5 7 1015.2 1015.1 0.0
21/01:00am 13.5 13.3 12.9 96 0.3 N 6 11 3 6 1015.3 1015.2 0.0
21/12:30am 13.4 13.1 12.8 96 0.3 NNW 6 9 3 5 1015.6 1015.5 0.0
21/12:00am 13.3 12.9 12.5 95 0.4 NNW 6 9 3 5 1015.8 1015.7 0.0
 
Date/Time
WST
Temp
°C
App
Temp
°C
Dew
Point
Rel
Hum
%
Delta-T
°C
Wind Press
QNH
hPa
Press
MSL
hPa
Rain
since 9 am
mm
Dir
 
Spd
km/h
Gust
km/h
Spd
kts
Gust
kts
20/11:30pm 13.3 12.9 12.5 95 0.4 N 6 7 3 4 1015.9 1015.8 0.0
20/11:00pm 13.2 12.6 12.3 94 0.5 N 7 7 4 4 1015.9 1015.8 0.0
20/10:30pm 13.1 12.5 12.2 94 0.5 WNW 7 7 4 4 1016.5 1016.4 0.0
20/10:00pm 13.8 13.3 12.0 89 1.0 W 6 6 3 3 1016.7 1016.6 0.0
20/09:30pm 14.0 13.5 12.0 88 1.1 W 6 7 3 4 1016.9 1016.8 0.0
20/09:00pm 13.8 13.2 11.7 87 1.1 W 6 7 3 4 1017.0 1016.9 0.0
20/08:30pm 14.5 13.3 11.5 82 1.6 WSW 9 13 5 7 1017.0 1016.9 0.0
20/08:00pm 14.9 13.6 11.3 79 1.9 W 9 13 5 7 1016.7 1016.6 0.0
20/07:30pm 15.2 13.2 10.2 72 2.7 W 11 15 6 8 1016.4 1016.3 0.0
20/07:00pm 15.4 13.8 8.9 65 3.4 W 7 9 4 5 1016.1 1016.0 0.0
20/06:30pm 16.4 15.0 8.9 61 3.9 W 6 7 3 4 1015.9 1015.8 0.0
20/06:00pm 17.7 15.8 7.4 51 5.3 W 7 9 4 5 1015.9 1015.8 0.0
20/05:30pm 19.5 16.3 6.9 44 6.4 W 13 20 7 11 1015.7 1015.6 0.0
20/05:00pm 19.6 16.9 5.6 40 7.0 WNW 9 15 5 8 1015.4 1015.3 0.0
20/04:30pm 19.9 17.1 5.2 38 7.3 NW 9 13 5 7 1015.3 1015.2 0.0
20/04:00pm 20.6 17.1 5.4 37 7.6 NW 13 20 7 11 1015.4 1015.3 0.0
20/03:30pm 20.1 17.0 5.7 39 7.2 NNW 11 22 6 12 1015.5 1015.4 0.0
20/03:00pm 19.8 15.6 5.8 40 7.0 WNW 17 26 9 14 1015.8 1015.7 0.0
20/02:30pm 20.4 16.3 4.4 35 7.8 NNW 15 24 8 13 1015.9 1015.8 0.0
20/02:00pm 20.1 15.3 5.7 39 7.2 WNW 20 30 11 16 1016.2 1016.1 0.0
20/01:30pm 19.3 15.0 6.8 44 6.4 NW 19 28 10 15 1016.5 1016.4 0.0
20/01:00pm 18.7 14.2 6.9 46 6.0 WNW 20 28 11 15 1016.8 1016.7 0.0
20/12:30pm 19.2 14.7 7.0 45 6.2 NW 20 30 11 16 1017.2 1017.1 0.0
20/12:00pm 18.2 14.0 8.2 52 5.2 NW 20 30 11 16 1017.8 1017.6 0.0
20/11:30am 18.4 15.5 9.5 56 4.8 NNW 15 22 8 12 1018.2 1018.0 0.0
20/11:00am 17.6 14.7 9.5 59 4.3 NNW 15 24 8 13 1018.4 1018.3 0.0
20/10:30am 16.7 14.8 11.8 73 2.7 NNW 13 19 7 10 1018.7 1018.6 0.0
20/10:00am 15.7 14.0 12.6 82 1.7 NNW 13 17 7 9 1018.8 1018.7 0.0
20/09:30am 15.0 13.6 13.4 90 0.9 N 13 19 7 10 1018.8 1018.7 0.0
20/09:00am 13.7 12.8 13.7 100 0.0 N 11 19 6 10 1018.5 1018.4 1.8
20/08:30am 12.4 11.4 12.4 100 0.0 N 9 15 5 8 1018.1 - 1.8
20/08:00am 11.0 9.6 11.0 100 0.0 N 9 13 5 7 1018.0 1017.8 1.8
20/07:30am 10.1 9.0 10.1 100 0.0 NNE 6 9 3 5 1018.0 - 1.8
20/07:00am 10.1 8.1 10.1 100 0.0 N 11 13 6 7 1017.9 1017.7 1.8
20/06:30am 11.2 11.2 11.2 100 0.0 N 2 6 1 3 1018.1 - 1.8
20/06:00am 11.3 11.7 11.3 100 0.0 CALM 0 0 0 0 1018.0 1017.8 1.8
20/05:30am 11.5 12.0 11.5 100 0.0 CALM 0 0 0 0 1017.6 - 1.8
20/05:00am 12.3 13.0 12.3 100 0.0 CALM 0 0 0 0 1017.6 1017.4 1.8
20/04:30am 12.3 11.9 12.3 100 0.0 NW 6 7 3 4 1017.8 - 1.8
20/04:00am 11.9 11.2 11.9 100 0.0 N 7 7 4 4 1017.9 1017.7 1.8
20/03:30am 12.3 11.7 12.3 100 0.0 NW 7 7 4 4 1017.9 - 1.8
20/03:00am 13.1 13.7 13.1 100 0.0 WNW 2 4 1 2 1018.2 1018.0 1.8
20/02:30am 13.1 12.4 13.1 100 0.0 W 9 15 5 8 1018.8 - 1.8
20/02:00am 12.7 11.8 12.7 100 0.0 W 9 11 5 6 1018.7 1018.6 1.8
20/01:30am 12.4 11.8 12.4 100 0.0 W 7 9 4 5 1018.7 - 1.8
20/01:00am 12.3 11.7 12.3 100 0.0 W 7 9 4 5 1018.7 1018.6 1.8
20/12:30am 12.7 11.8 12.7 100 0.0 WSW 9 13 5 7 1019.0 - 1.8
20/12:00am 11.6 10.8 11.6 100 0.0 W 7 7 4 4 1019.1 1019.0 1.8
 
Date/Time
WST
Temp
°C
App
Temp
°C
Dew
Point
Rel
Hum
%
Delta-T
°C
Wind Press
QNH
hPa
Press
MSL
hPa
Rain
since 9 am
mm
Dir
 
Spd
km/h
Gust
km/h
Spd
kts
Gust
kts
19/11:30pm 11.9 11.2 11.9 100 0.0 W 7 9 4 5 1019.3 - 1.8
19/11:00pm 11.8 11.0 11.8 100 0.0 W 7 9 4 5 1019.3 1019.2 1.8
19/10:30pm 11.9 11.2 11.9 100 0.0 W 7 7 4 4 1019.4 - 1.8
19/10:00pm 12.4 11.7 12.1 98 0.2 W 7 9 4 5 1019.6 1019.5 1.8
19/09:30pm 13.2 12.7 12.7 97 0.3 W 7 9 4 5 1019.7 - 1.8
19/09:00pm 13.4 12.9 12.8 96 0.3 W 7 9 4 5 1019.8 1019.7 1.8
19/08:30pm 13.9 13.5 13.0 94 0.5 W 7 9 4 5 1019.6 - 1.8
19/08:00pm 13.9 13.5 13.0 94 0.5 W 7 11 4 6 1019.4 1019.3 1.8
19/07:30pm 14.2 13.4 12.8 91 0.8 W 9 11 5 6 1019.0 - 1.8
19/07:00pm 15.0 14.0 12.3 84 1.5 W 9 13 5 7 1018.7 1018.6 1.8
19/06:30pm 15.4 13.9 12.0 80 1.9 WSW 11 15 6 8 1018.1 - 1.8
19/06:00pm 16.1 15.0 12.1 77 2.2 WSW 9 15 5 8 1017.8 1017.6 1.8
19/05:30pm 17.2 15.7 11.9 71 2.9 WSW 11 17 6 9 1017.8 - 1.8
19/05:00pm 17.8 16.1 12.5 71 3.0 WSW 13 20 7 11 1017.8 1017.6 1.8
19/04:30pm 18.1 16.3 13.2 73 2.8 WSW 15 20 8 11 1017.8 - 1.8
19/04:00pm 17.0 16.0 13.3 79 2.1 W 11 19 6 10 1017.8 1017.6 1.8
19/03:30pm 17.3 17.6 14.6 84 1.6 W 6 9 3 5 1018.0 - 1.8
19/03:00pm 15.7 16.0 14.9 95 0.5 W 7 13 4 7 1018.1 1017.9 1.8
19/02:30pm 16.7 15.8 13.6 82 1.8 SW 11 17 6 9 1018.1 - 1.0
19/02:00pm 16.7 15.3 14.5 87 1.3 SW 15 20 8 11 1018.1 1017.9 1.0
19/01:30pm 17.9 16.6 12.6 71 3.0 SW 11 15 6 8 1018.2 - 1.0
19/01:00pm 17.5 16.7 12.8 74 2.7 W 9 17 5 9 1018.5 1018.4 1.0
19/12:30pm 17.1 16.3 12.8 76 2.4 W 9 13 5 7 1018.9 - 1.0
19/12:00pm 17.1 16.0 13.0 77 2.3 WNW 11 17 6 9 1019.2 1019.1 1.0
19/11:30am 16.5 15.2 13.6 83 1.7 W 13 17 7 9 1019.4 - 1.0
19/11:00am 16.0 15.5 14.9 93 0.6 W 11 19 6 10 1019.9 1019.8 1.0
19/10:30am 14.9 13.6 14.9 100 0.0 WNW 15 20 8 11 1020.1 - 1.0
19/10:00am 14.4 13.7 14.4 100 0.0 WSW 11 19 6 10 1020.3 1020.2 0.6
19/09:30am 14.7 13.7 14.7 100 0.0 W 13 19 7 10 1020.3 - 0.0
19/09:00am 14.3 14.0 14.3 100 0.0 WNW 9 13 5 7 1020.4 1020.3 1.4
19/08:30am 13.5 13.3 13.5 100 0.0 NW 7 11 4 6 1020.2 - 1.4
19/08:00am 12.9 12.1 12.9 100 0.0 NNW 9 11 5 6 1020.0 1019.9 1.4
19/07:30am 12.4 12.0 12.4 100 0.0 NW 6 7 3 4 1019.8 - 1.2
19/07:00am 11.9 10.4 11.9 100 0.0 NW 11 17 6 9 1019.5 1019.4 1.2
19/06:30am 11.5 10.3 11.5 100 0.0 NNW 9 13 5 7 1019.3 - 1.0
19/06:00am 11.7 11.1 11.7 100 0.0 NW 6 7 3 4 1019.2 1019.1 1.0
19/05:30am 12.3 11.3 12.3 100 0.0 NNW 9 11 5 6 1019.0 - 1.0
19/05:00am 12.2 11.6 12.2 100 0.0 WNW 7 11 4 6 1019.1 1019.0 1.0
19/04:30am 12.1 11.0 12.1 100 0.0 WNW 9 13 5 7 1018.9 - 1.0
19/04:00am 12.2 10.8 12.2 100 0.0 WNW 11 17 6 9 1019.0 1018.9 0.8
19/03:30am 12.4 11.1 12.4 100 0.0 WNW 11 15 6 8 1018.9 - 0.4
19/03:00am 11.5 10.8 11.5 100 0.0 NNW 6 9 3 5 1018.9 1018.8 0.4
19/02:30am 11.8 10.7 11.8 100 0.0 NW 9 11 5 6 1019.1 - 0.4
19/02:00am 12.0 10.9 12.0 100 0.0 NW 9 13 5 7 1019.2 1019.1 0.4
19/01:30am 12.1 11.0 12.1 100 0.0 NW 9 13 5 7 1019.4 - 0.4
19/01:00am 12.3 11.3 12.3 100 0.0 WNW 9 11 5 6 1019.6 1019.5 0.4
19/12:30am 12.8 11.2 12.8 100 0.0 NW 13 17 7 9 1019.6 - 0.2
19/12:00am 12.6 10.6 12.6 100 0.0 WNW 15 20 8 11 1019.9 1019.8 0.2
 
Date/Time
WST
Temp
°C
App
Temp
°C
Dew
Point
Rel
Hum
%
Delta-T
°C
Wind Press
QNH
hPa
Press
MSL
hPa
Rain
since 9 am
mm
Dir
 
Spd
km/h
Gust
km/h
Spd
kts
Gust
kts
18/11:30pm 12.6 11.9 12.0 96 0.3 WNW 7 13 4 7 1020.0 - 0.0
18/11:00pm 13.0 11.6 12.2 95 0.4 WNW 11 17 6 9 1020.3 1020.2 0.0
18/10:30pm 12.8 10.9 11.9 94 0.5 NW 13 17 7 9 1020.2 - 0.0
18/10:00pm 12.9 10.9 11.6 92 0.7 NW 13 19 7 10 1020.2 1020.1 0.0
18/09:30pm 12.7 11.1 11.4 92 0.7 NW 11 15 6 8 1020.3 - 0.0
18/09:00pm 12.8 11.1 11.2 90 0.9 NW 11 15 6 8 1020.2 1020.1 0.0
18/08:30pm 12.8 11.9 11.2 90 0.9 NW 7 11 4 6 1020.2 - 0.0
18/08:00pm 13.6 12.0 11.5 87 1.1 W 11 17 6 9 1019.9 1019.8 0.0
18/07:30pm 14.0 12.3 11.2 83 1.5 W 11 17 6 9 1019.7 - 0.0
18/07:00pm 14.7 13.0 11.1 79 1.9 W 11 15 6 8 1019.5 1019.4 0.0
18/06:30pm 15.3 12.8 11.1 76 2.3 W 15 20 8 11 1019.1 - 0.0
18/06:00pm 16.1 12.8 10.8 71 2.9 W 19 28 10 15 1018.8 1018.7 0.0
18/05:30pm 17.1 13.0 10.0 63 3.8 W 22 30 12 16 1018.3 - 0.0
18/05:00pm 18.1 13.6 10.2 60 4.3 W 24 32 13 17 1018.1 1017.9 0.0
18/04:30pm 18.5 13.3 10.3 59 4.4 W 28 39 15 21 1017.9 - 0.0
18/04:00pm 19.1 15.4 11.4 61 4.3 W 22 32 12 17 1017.8 1017.6 0.0
18/03:30pm 19.1 14.1 9.6 54 5.1 W 26 39 14 21 1017.7 - 0.0
18/03:00pm 19.8 15.8 10.5 55 5.1 W 22 32 12 17 1017.7 1017.5 0.0
18/02:30pm 19.4 15.9 10.9 58 4.7 W 20 33 11 18 1017.8 - 0.0

Other Formats:

Comma delimited format used in spreadsheet applications
http://www.bom.gov.au/fwo/IDW60801/IDW60801.94417.axf

JavaScript Object Notation format (JSON) in row-major order
http://www.bom.gov.au/fwo/IDW60801/IDW60801.94417.json